Wetterdaten: Mittwoch, 27.06.2007
Datum Zeit Temp. A. Feuchte A. Luftdruck Regen Wind Richtung Richtung Sonnenschein UV Solar Windben
27.06.2007 00:00 10,5 C 74 % 1002,9 hPa 0,0 mm 11,3 km/h (2 Bft) W-SW 247 0 min 0 UV-I 0 W/m 25,7 km/h (4 Bft)
27.06.2007 00:10 10,4 C 75 % 1003,0 hPa 0,0 mm 9,7 km/h (2 Bft) W 270 0 min 0 UV-I 0 W/m 24,1 km/h (4 Bft)
27.06.2007 00:20 10,3 C 75 % 1003,0 hPa 0,0 mm 11,3 km/h (2 Bft) W-SW 247 0 min 0 UV-I 0 W/m 27,4 km/h (4 Bft)
27.06.2007 00:30 10,3 C 76 % 1003,0 hPa 0,0 mm 12,9 km/h (3 Bft) W-SW 247 0 min 0 UV-I 0 W/m 25,7 km/h (4 Bft)
27.06.2007 00:40 10,3 C 76 % 1003,0 hPa 0,0 mm 11,3 km/h (2 Bft) W-SW 247 0 min 0 UV-I 0 W/m 25,7 km/h (4 Bft)
27.06.2007 00:50 10,3 C 75 % 1003,1 hPa 0,0 mm 12,9 km/h (3 Bft) W-SW 247 0 min 0 UV-I 0 W/m 35,4 km/h (5 Bft)
27.06.2007 01:00 10,3 C 75 % 1003,0 hPa 0,0 mm 11,3 km/h (2 Bft) W 270 0 min 0 UV-I 0 W/m 27,4 km/h (4 Bft)
27.06.2007 01:10 10,3 C 76 % 1003,0 hPa 0,0 mm 9,7 km/h (2 Bft) W-SW 247 0 min 0 UV-I 0 W/m 30,6 km/h (5 Bft)
27.06.2007 01:20 10,3 C 75 % 1003,1 hPa 0,0 mm 11,3 km/h (2 Bft) W-SW 247 0 min 0 UV-I 0 W/m 29,0 km/h (5 Bft)
27.06.2007 01:30 10,3 C 76 % 1003,1 hPa 0,0 mm 11,3 km/h (2 Bft) W 270 0 min 0 UV-I 0 W/m 30,6 km/h (5 Bft)
27.06.2007 01:40 10,3 C 76 % 1003,0 hPa 0,0 mm 11,3 km/h (2 Bft) W 270 0 min 0 UV-I 0 W/m 27,4 km/h (4 Bft)
27.06.2007 01:50 10,1 C 77 % 1003,1 hPa 0,0 mm 9,7 km/h (2 Bft) W 270 0 min 0 UV-I 0 W/m 27,4 km/h (4 Bft)
27.06.2007 02:00 10,0 C 77 % 1003,0 hPa 0,0 mm 9,7 km/h (2 Bft) W-SW 247 0 min 0 UV-I 0 W/m 22,5 km/h (4 Bft)
27.06.2007 02:10 10,0 C 76 % 1003,0 hPa 0,0 mm 14,5 km/h (3 Bft) W 270 0 min 0 UV-I 0 W/m 33,8 km/h (5 Bft)
27.06.2007 02:20 10,1 C 77 % 1003,0 hPa 0,0 mm 11,3 km/h (2 Bft) W-SW 247 0 min 0 UV-I 0 W/m 27,4 km/h (4 Bft)
27.06.2007 02:30 10,0 C 76 % 1003,0 hPa 0,0 mm 11,3 km/h (2 Bft) W-SW 247 0 min 0 UV-I 0 W/m 24,1 km/h (4 Bft)
27.06.2007 02:40 9,9 C 77 % 1003,0 hPa 0,0 mm 9,7 km/h (2 Bft) W 270 0 min 0 UV-I 0 W/m 24,1 km/h (4 Bft)
27.06.2007 02:50 9,9 C 77 % 1003,0 hPa 0,0 mm 12,9 km/h (3 Bft) W-SW 247 0 min 0 UV-I 0 W/m 27,4 km/h (4 Bft)
27.06.2007 03:00 9,9 C 77 % 1003,1 hPa 0,0 mm 9,7 km/h (2 Bft) W-SW 247 0 min 0 UV-I 0 W/m 20,9 km/h (4 Bft)
27.06.2007 03:10 9,8 C 77 % 1003,0 hPa 0,0 mm 12,9 km/h (3 Bft) W-SW 247 0 min 0 UV-I 0 W/m 30,6 km/h (5 Bft)
27.06.2007 03:20 9,9 C 77 % 1003,0 hPa 0,0 mm 12,9 km/h (3 Bft) W-SW 247 0 min 0 UV-I 0 W/m 25,7 km/h (4 Bft)
27.06.2007 03:30 9,9 C 77 % 1003,1 hPa 0,0 mm 9,7 km/h (2 Bft) W 270 0 min 0 UV-I 0 W/m 25,7 km/h (4 Bft)
27.06.2007 03:40 10,0 C 77 % 1003,2 hPa 0,0 mm 11,3 km/h (2 Bft) W-SW 247 0 min 0 UV-I 0 W/m 30,6 km/h (5 Bft)
27.06.2007 03:50 10,0 C 77 % 1003,2 hPa 0,0 mm 9,7 km/h (2 Bft) W-SW 247 0 min 0 UV-I 0 W/m 22,5 km/h (4 Bft)
27.06.2007 04:00 10,0 C 77 % 1003,2 hPa 0,0 mm 11,3 km/h (2 Bft) W-SW 247 0 min 0 UV-I 0 W/m 27,4 km/h (4 Bft)
27.06.2007 04:10 9,9 C 77 % 1003,3 hPa 0,0 mm 11,3 km/h (2 Bft) W-SW 247 0 min 0 UV-I 0 W/m 30,6 km/h (5 Bft)
27.06.2007 04:20 9,9 C 77 % 1003,3 hPa 0,0 mm 9,7 km/h (2 Bft) W-SW 247 0 min 0 UV-I 0 W/m 25,7 km/h (4 Bft)
27.06.2007 04:30 9,7 C 78 % 1003,4 hPa 0,0 mm 12,9 km/h (3 Bft) W-SW 247 0 min 0 UV-I 0 W/m 27,4 km/h (4 Bft)
27.06.2007 04:40 9,6 C 78 % 1003,4 hPa 0,0 mm 8,0 km/h (2 Bft) W-SW 247 0 min 0 UV-I 0 W/m 19,3 km/h (3 Bft)
27.06.2007 04:50 9,6 C 78 % 1003,5 hPa 0,0 mm 8,0 km/h (2 Bft) W-SW 247 0 min 0 UV-I 0 W/m 19,3 km/h (3 Bft)
27.06.2007 05:00 9,6 C 78 % 1003,5 hPa 0,0 mm 8,0 km/h (2 Bft) SW 225 0 min 0 UV-I 0 W/m 19,3 km/h (3 Bft)
27.06.2007 05:10 9,5 C 78 % 1003,6 hPa 0,0 mm 9,7 km/h (2 Bft) W-SW 247 0 min 0 UV-I 0 W/m 24,1 km/h (4 Bft)
27.06.2007 05:20 9,4 C 78 % 1003,6 hPa 0,0 mm 8,0 km/h (2 Bft) W 270 0 min 0 UV-I 0 W/m 22,5 km/h (4 Bft)
27.06.2007 05:30 9,3 C 78 % 1003,7 hPa 0,0 mm 9,7 km/h (2 Bft) W-SW 247 0 min 0 UV-I 0 W/m 27,4 km/h (4 Bft)
27.06.2007 05:40 9,3 C 79 % 1003,7 hPa 0,0 mm 11,3 km/h (2 Bft) W-SW 247 0 min 0 UV-I 7 W/m 25,7 km/h (4 Bft)
27.06.2007 05:50 9,3 C 78 % 1003,6 hPa 0,0 mm 9,7 km/h (2 Bft) W-SW 247 0 min 0 UV-I 16 W/m 29,0 km/h (5 Bft)
27.06.2007 06:00 9,3 C 79 % 1003,7 hPa 0,0 mm 11,3 km/h (2 Bft) W-SW 247 0 min 0 UV-I 21 W/m 27,4 km/h (4 Bft)
27.06.2007 06:10 9,2 C 79 % 1003,7 hPa 0,0 mm 9,7 km/h (2 Bft) W-SW 247 0 min 0 UV-I 28 W/m 29,0 km/h (5 Bft)
27.06.2007 06:20 9,2 C 79 % 1003,8 hPa 0,0 mm 9,7 km/h (2 Bft) W 270 0 min 0 UV-I 39 W/m 29,0 km/h (5 Bft)
27.06.2007 06:30 9,3 C 79 % 1003,7 hPa 0,0 mm 9,7 km/h (2 Bft) W-SW 247 0 min 0 UV-I 44 W/m 25,7 km/h (4 Bft)
27.06.2007 06:40 9,4 C 79 % 1003,7 hPa 0,0 mm 11,3 km/h (2 Bft) W-SW 247 0 min 0 UV-I 47 W/m 25,7 km/h (4 Bft)
27.06.2007 06:50 9,5 C 78 % 1003,8 hPa 0,0 mm 11,3 km/h (2 Bft) W-SW 247 10 min 0 UV-I 123 W/m 29,0 km/h (5 Bft)
27.06.2007 07:00 9,7 C 78 % 1003,9 hPa 0,0 mm 14,5 km/h (3 Bft) W-SW 247 0 min 0 UV-I 120 W/m 40,2 km/h (6 Bft)
27.06.2007 07:10 9,6 C 80 % 1004,0 hPa 0,0 mm 12,9 km/h (3 Bft) W-SW 247 0 min 0 UV-I 46 W/m 27,4 km/h (4 Bft)
27.06.2007 07:20 9,4 C 81 % 1004,0 hPa 0,0 mm 9,7 km/h (2 Bft) W-SW 247 0 min 0 UV-I 51 W/m 22,5 km/h (4 Bft)
27.06.2007 07:30 9,4 C 82 % 1004,1 hPa 0,0 mm 9,7 km/h (2 Bft) W-SW 247 0 min 0 UV-I 69 W/m 27,4 km/h (4 Bft)
27.06.2007 07:40 9,4 C 82 % 1004,3 hPa 0,3 mm 12,9 km/h (3 Bft) W-SW 247 0 min 0 UV-I 53 W/m 35,4 km/h (5 Bft)
27.06.2007 07:50 9,3 C 83 % 1004,3 hPa 0,0 mm 14,5 km/h (3 Bft) W-SW 247 0 min 0 UV-I 74 W/m 25,7 km/h (4 Bft)
27.06.2007 08:00 9,2 C 85 % 1004,3 hPa 0,3 mm 9,7 km/h (2 Bft) W-SW 247 0 min 0 UV-I 74 W/m 25,7 km/h (4 Bft)
27.06.2007 08:10 9,2 C 84 % 1004,4 hPa 0,0 mm 9,7 km/h (2 Bft) W-SW 247 0 min 0 UV-I 102 W/m 24,1 km/h (4 Bft)
27.06.2007 08:20 9,3 C 84 % 1004,5 hPa 0,0 mm 12,9 km/h (3 Bft) W 270 0 min 0 UV-I 104 W/m 24,1 km/h (4 Bft)
27.06.2007 08:30 9,2 C 85 % 1004,5 hPa 0,0 mm 11,3 km/h (2 Bft) W-SW 247 0 min 1 UV-I 116 W/m 27,4 km/h (4 Bft)
27.06.2007 08:40 9,3 C 85 % 1004,6 hPa 0,0 mm 11,3 km/h (2 Bft) W 270 0 min 1 UV-I 244 W/m 29,0 km/h (5 Bft)
27.06.2007 08:50 9,6 C 84 % 1004,6 hPa 0,0 mm 11,3 km/h (2 Bft) W-SW 247 0 min 1 UV-I 227 W/m 24,1 km/h (4 Bft)
27.06.2007 09:00 9,7 C 84 % 1004,6 hPa 0,0 mm 12,9 km/h (3 Bft) W-SW 247 0 min 1 UV-I 169 W/m 30,6 km/h (5 Bft)
27.06.2007 09:10 9,6 C 85 % 1004,8 hPa 0,0 mm 12,9 km/h (3 Bft) W-SW 247 0 min 1 UV-I 160 W/m 27,4 km/h (4 Bft)
27.06.2007 09:20 9,6 C 84 % 1004,9 hPa 0,0 mm 14,5 km/h (3 Bft) W-SW 247 0 min 1 UV-I 151 W/m 30,6 km/h (5 Bft)
27.06.2007 09:30 9,7 C 84 % 1004,8 hPa 0,0 mm 9,7 km/h (2 Bft) W-SW 247 0 min 1 UV-I 206 W/m 25,7 km/h (4 Bft)
27.06.2007 09:40 10,0 C 82 % 1005,1 hPa 0,0 mm 11,3 km/h (2 Bft) W 270 0 min 1 UV-I 241 W/m 25,7 km/h (4 Bft)
27.06.2007 09:50 10,0 C 82 % 1005,0 hPa 0,0 mm 11,3 km/h (2 Bft) W-SW 247 0 min 1 UV-I 216 W/m 27,4 km/h (4 Bft)
27.06.2007 10:00 10,0 C 82 % 1005,1 hPa 0,0 mm 11,3 km/h (2 Bft) W-SW 247 0 min 2 UV-I 190 W/m 30,6 km/h (5 Bft)
27.06.2007 10:10 10,1 C 82 % 1005,1 hPa 0,0 mm 8,0 km/h (2 Bft) W-SW 247 0 min 4 UV-I 332 W/m 17,7 km/h (3 Bft)
27.06.2007 10:20 10,6 C 80 % 1005,1 hPa 0,0 mm 9,7 km/h (2 Bft) W 270 10 min 4 UV-I 554 W/m 17,7 km/h (3 Bft)
27.06.2007 10:30 11,1 C 77 % 1005,0 hPa 0,0 mm 11,3 km/h (2 Bft) W 270 10 min 4 UV-I 410 W/m 24,1 km/h (4 Bft)
27.06.2007 10:40 11,7 C 75 % 1004,9 hPa 0,0 mm 12,9 km/h (3 Bft) W 270 10 min 5 UV-I 464 W/m 29,0 km/h (5 Bft)
27.06.2007 10:50 11,9 C 75 % 1004,8 hPa 0,0 mm 12,9 km/h (3 Bft) W 270 10 min 3 UV-I 538 W/m 29,0 km/h (5 Bft)
27.06.2007 11:00 12,1 C 72 % 1004,8 hPa 0,0 mm 12,9 km/h (3 Bft) W 270 10 min 4 UV-I 503 W/m 29,0 km/h (5 Bft)
27.06.2007 11:10 12,7 C 70 % 1004,8 hPa 0,0 mm 11,3 km/h (2 Bft) W 270 10 min 5 UV-I 640 W/m 30,6 km/h (5 Bft)
27.06.2007 11:20 13,3 C 67 % 1004,8 hPa 0,0 mm 11,3 km/h (2 Bft) W 270 10 min 3 UV-I 448 W/m 30,6 km/h (5 Bft)
27.06.2007 11:30 13,0 C 68 % 1004,9 hPa 0,0 mm 12,9 km/h (3 Bft) W 270 0 min 3 UV-I 404 W/m 25,7 km/h (4 Bft)
27.06.2007 11:40 12,9 C 65 % 1004,9 hPa 0,0 mm 14,5 km/h (3 Bft) W 270 0 min 3 UV-I 390 W/m 30,6 km/h (5 Bft)
27.06.2007 11:50 12,4 C 71 % 1005,1 hPa 0,0 mm 12,9 km/h (3 Bft) W-SW 247 0 min 2 UV-I 260 W/m 30,6 km/h (5 Bft)
27.06.2007 12:00 12,2 C 71 % 1005,0 hPa 0,0 mm 9,7 km/h (2 Bft) W 270 0 min 2 UV-I 301 W/m 22,5 km/h (4 Bft)
27.06.2007 12:10 12,7 C 68 % 1005,2 hPa 0,0 mm 12,9 km/h (3 Bft) W 270 0 min 3 UV-I 297 W/m 27,4 km/h (4 Bft)
27.06.2007 12:20 12,1 C 75 % 1005,7 hPa 0,0 mm 8,0 km/h (2 Bft) W-NW 292 0 min 0 UV-I 49 W/m 27,4 km/h (4 Bft)
27.06.2007 12:30 10,2 C 82 % 1005,6 hPa 0,0 mm 6,4 km/h (2 Bft) W 270 0 min 1 UV-I 135 W/m 25,7 km/h (4 Bft)
27.06.2007 12:40 9,9 C 81 % 1005,7 hPa 0,0 mm 4,8 km/h (1 Bft) NW 315 0 min 2 UV-I 197 W/m 14,5 km/h (3 Bft)
27.06.2007 12:50 10,1 C 81 % 1005,9 hPa 0,0 mm 8,0 km/h (2 Bft) NW 315 0 min 0 UV-I 28 W/m 20,9 km/h (4 Bft)
27.06.2007 13:00 10,0 C 83 % 1006,1 hPa 0,3 mm 8,0 km/h (2 Bft) W-NW 292 0 min 0 UV-I 28 W/m 19,3 km/h (3 Bft)
27.06.2007 13:10 9,7 C 85 % 1005,9 hPa 0,3 mm 6,4 km/h (2 Bft) W 270 0 min 1 UV-I 100 W/m 17,7 km/h (3 Bft)
27.06.2007 13:20 9,8 C 84 % 1005,7 hPa 0,0 mm 3,2 km/h (1 Bft) W 270 0 min 1 UV-I 105 W/m 14,5 km/h (3 Bft)
27.06.2007 13:30 10,1 C 84 % 1005,7 hPa 0,0 mm 3,2 km/h (1 Bft) W 270 0 min 1 UV-I 93 W/m 11,3 km/h (2 Bft)
27.06.2007 13:40 10,2 C 83 % 1005,7 hPa 0,0 mm 3,2 km/h (1 Bft) W-SW 247 0 min 1 UV-I 97 W/m 8,0 km/h (2 Bft)
27.06.2007 13:50 10,3 C 86 % 1005,6 hPa 0,0 mm 1,6 km/h (1 Bft) W 270 0 min 1 UV-I 95 W/m 8,0 km/h (2 Bft)
27.06.2007 14:00 10,6 C 86 % 1005,7 hPa 0,0 mm 1,6 km/h (1 Bft) SW 225 0 min 3 UV-I 308 W/m 4,8 km/h (1 Bft)
27.06.2007 14:10 11,6 C 81 % 1005,6 hPa 0,0 mm 3,2 km/h (1 Bft) S-SW 202 10 min 7 UV-I 580 W/m 9,7 km/h (2 Bft)
27.06.2007 14:20 12,5 C 78 % 1005,6 hPa 0,0 mm 1,6 km/h (1 Bft) SW 225 0 min 4 UV-I 448 W/m 6,4 km/h (2 Bft)
27.06.2007 14:30 12,5 C 79 % 1005,9 hPa 0,0 mm 3,2 km/h (1 Bft) W 270 0 min 1 UV-I 109 W/m 8,0 km/h (2 Bft)
27.06.2007 14:40 12,3 C 72 % 1005,8 hPa 0,0 mm 8,0 km/h (2 Bft) W 270 0 min 1 UV-I 135 W/m 19,3 km/h (3 Bft)
27.06.2007 14:50 12,4 C 72 % 1005,9 hPa 0,0 mm 6,4 km/h (2 Bft) W 270 0 min 2 UV-I 232 W/m 12,9 km/h (3 Bft)
27.06.2007 15:00 12,8 C 74 % 1005,8 hPa 0,0 mm 4,8 km/h (1 Bft) W-SW 247 0 min 6 UV-I 374 W/m 11,3 km/h (2 Bft)
27.06.2007 15:10 13,9 C 65 % 1005,7 hPa 0,0 mm 8,0 km/h (2 Bft) W-SW 247 10 min 6 UV-I 1009 W/m 19,3 km/h (3 Bft)
27.06.2007 15:20 15,2 C 64 % 1005,5 hPa 0,0 mm 6,4 km/h (2 Bft) W-SW 247 10 min 6 UV-I 969 W/m 20,9 km/h (4 Bft)
27.06.2007 15:30 16,0 C 56 % 1005,4 hPa 0,0 mm 9,7 km/h (2 Bft) W-SW 247 10 min 6 UV-I 884 W/m 20,9 km/h (4 Bft)
27.06.2007 15:40 16,2 C 53 % 1005,3 hPa 0,0 mm 14,5 km/h (3 Bft) W 270 10 min 5 UV-I 893 W/m 27,4 km/h (4 Bft)
27.06.2007 15:50 16,6 C 52 % 1005,2 hPa 0,0 mm 11,3 km/h (2 Bft) W 270 10 min 5 UV-I 991 W/m 30,6 km/h (5 Bft)
27.06.2007 16:00 16,9 C 51 % 1005,2 hPa 0,0 mm 11,3 km/h (2 Bft) W 270 10 min 5 UV-I 923 W/m 25,7 km/h (4 Bft)
27.06.2007 16:10 16,5 C 56 % 1005,4 hPa 0,0 mm 12,9 km/h (3 Bft) W 270 0 min 2 UV-I 190 W/m 32,2 km/h (5 Bft)
27.06.2007 16:20 15,9 C 54 % 1005,2 hPa 0,0 mm 11,3 km/h (2 Bft) W 270 10 min 4 UV-I 867 W/m 27,4 km/h (4 Bft)
27.06.2007 16:30 16,2 C 51 % 1005,4 hPa 0,0 mm 12,9 km/h (3 Bft) W 270 0 min 3 UV-I 322 W/m 27,4 km/h (4 Bft)
27.06.2007 16:40 16,0 C 51 % 1005,3 hPa 0,0 mm 11,3 km/h (2 Bft) W 270 0 min 2 UV-I 348 W/m 27,4 km/h (4 Bft)
27.06.2007 16:50 16,3 C 52 % 1005,4 hPa 0,0 mm 8,0 km/h (2 Bft) W 270 10 min 4 UV-I 984 W/m 20,9 km/h (4 Bft)
27.06.2007 17:00 17,2 C 48 % 1005,3 hPa 0,0 mm 11,3 km/h (2 Bft) W 270 10 min 3 UV-I 860 W/m 25,7 km/h (4 Bft)
27.06.2007 17:10 16,8 C 48 % 1005,4 hPa 0,0 mm 11,3 km/h (2 Bft) W 270 0 min 2 UV-I 190 W/m 27,4 km/h (4 Bft)
27.06.2007 17:20 16,4 C 49 % 1005,4 hPa 0,0 mm 9,7 km/h (2 Bft) W 270 10 min 2 UV-I 383 W/m 25,7 km/h (4 Bft)
27.06.2007 17:30 16,6 C 50 % 1005,4 hPa 0,0 mm 9,7 km/h (2 Bft) W 270 10 min 2 UV-I 325 W/m 24,1 km/h (4 Bft)
27.06.2007 17:40 16,8 C 50 % 1005,4 hPa 0,0 mm 12,9 km/h (3 Bft) W 270 10 min 2 UV-I 388 W/m 29,0 km/h (5 Bft)
27.06.2007 17:50 16,8 C 47 % 1005,5 hPa 0,0 mm 11,3 km/h (2 Bft) W-SW 247 10 min 2 UV-I 515 W/m 25,7 km/h (4 Bft)
27.06.2007 18:00 16,5 C 50 % 1005,4 hPa 0,0 mm 8,0 km/h (2 Bft) W 270 0 min 1 UV-I 236 W/m 24,1 km/h (4 Bft)
27.06.2007 18:10 16,5 C 48 % 1005,5 hPa 0,0 mm 9,7 km/h (2 Bft) W 270 10 min 1 UV-I 348 W/m 22,5 km/h (4 Bft)
27.06.2007 18:20 16,6 C 50 % 1005,5 hPa 0,0 mm 11,3 km/h (2 Bft) W-SW 247 0 min 1 UV-I 188 W/m 25,7 km/h (4 Bft)
27.06.2007 18:30 16,4 C 50 % 1005,4 hPa 0,0 mm 11,3 km/h (2 Bft) W-SW 247 10 min 1 UV-I 283 W/m 22,5 km/h (4 Bft)
27.06.2007 18:40 16,3 C 52 % 1005,4 hPa 0,0 mm 9,7 km/h (2 Bft) W-SW 247 10 min 1 UV-I 272 W/m 29,0 km/h (5 Bft)
27.06.2007 18:50 16,5 C 52 % 1005,5 hPa 0,0 mm 9,7 km/h (2 Bft) W-SW 247 10 min 1 UV-I 322 W/m 20,9 km/h (4 Bft)
27.06.2007 19:00 16,7 C 51 % 1005,4 hPa 0,0 mm 9,7 km/h (2 Bft) W 270 10 min 1 UV-I 301 W/m 27,4 km/h (4 Bft)
27.06.2007 19:10 16,5 C 53 % 1005,5 hPa 0,0 mm 8,0 km/h (2 Bft) W 270 0 min 1 UV-I 188 W/m 24,1 km/h (4 Bft)
27.06.2007 19:20 16,3 C 54 % 1005,5 hPa 0,0 mm 8,0 km/h (2 Bft) W 270 0 min 1 UV-I 176 W/m 19,3 km/h (3 Bft)
27.06.2007 19:30 16,2 C 56 % 1005,5 hPa 0,0 mm 6,4 km/h (2 Bft) W-SW 247 0 min 1 UV-I 137 W/m 19,3 km/h (3 Bft)
27.06.2007 19:40 16,1 C 56 % 1005,6 hPa 0,0 mm 6,4 km/h (2 Bft) W 270 0 min 0 UV-I 130 W/m 20,9 km/h (4 Bft)
27.06.2007 19:50 15,9 C 55 % 1005,6 hPa 0,0 mm 9,7 km/h (2 Bft) W 270 0 min 0 UV-I 100 W/m 25,7 km/h (4 Bft)
27.06.2007 20:00 15,7 C 55 % 1005,6 hPa 0,0 mm 14,5 km/h (3 Bft) W 270 0 min 0 UV-I 91 W/m 29,0 km/h (5 Bft)
27.06.2007 20:10 15,6 C 57 % 1005,7 hPa 0,0 mm 9,7 km/h (2 Bft) W 270 0 min 0 UV-I 81 W/m 22,5 km/h (4 Bft)
27.06.2007 20:20 15,4 C 58 % 1005,7 hPa 0,0 mm 8,0 km/h (2 Bft) W 270 0 min 0 UV-I 70 W/m 24,1 km/h (4 Bft)
27.06.2007 20:30 15,2 C 59 % 1005,7 hPa 0,0 mm 8,0 km/h (2 Bft) W-SW 247 0 min 0 UV-I 42 W/m 20,9 km/h (4 Bft)
27.06.2007 20:40 15,1 C 59 % 1005,7 hPa 0,0 mm 6,4 km/h (2 Bft) W 270 0 min 0 UV-I 40 W/m 19,3 km/h (3 Bft)
27.06.2007 20:50 15,0 C 60 % 1005,8 hPa 0,0 mm 6,4 km/h (2 Bft) W 270 0 min 0 UV-I 23 W/m 17,7 km/h (3 Bft)
27.06.2007 21:00 15,0 C 61 % 1005,8 hPa 0,0 mm 4,8 km/h (1 Bft) W 270 0 min 0 UV-I 23 W/m 11,3 km/h (2 Bft)
27.06.2007 21:10 14,8 C 62 % 1005,7 hPa 0,0 mm 4,8 km/h (1 Bft) W 270 0 min 0 UV-I 16 W/m 11,3 km/h (2 Bft)
27.06.2007 21:20 14,7 C 62 % 1005,8 hPa 0,0 mm 4,8 km/h (1 Bft) W-SW 247 0 min 0 UV-I 12 W/m 9,7 km/h (2 Bft)
27.06.2007 21:30 14,6 C 64 % 1005,8 hPa 0,0 mm 1,6 km/h (1 Bft) SW 225 0 min 0 UV-I 9 W/m 8,0 km/h (2 Bft)
27.06.2007 21:40 14,4 C 64 % 1005,9 hPa 0,0 mm 1,6 km/h (1 Bft) SW 225 0 min 0 UV-I 0 W/m 6,4 km/h (2 Bft)
27.06.2007 21:50 14,3 C 64 % 1006,0 hPa 0,0 mm 3,2 km/h (1 Bft) SW 225 0 min 0 UV-I 0 W/m 8,0 km/h (2 Bft)
27.06.2007 22:00 14,3 C 65 % 1006,0 hPa 0,0 mm 1,6 km/h (1 Bft) SW 225 0 min 0 UV-I 0 W/m 6,4 km/h (2 Bft)
27.06.2007 22:10 14,2 C 66 % 1006,1 hPa 0,0 mm 1,6 km/h (1 Bft) S-SW 202 0 min 0 UV-I 0 W/m 4,8 km/h (1 Bft)
27.06.2007 22:20 14,1 C 65 % 1006,1 hPa 0,0 mm 3,2 km/h (1 Bft) W-SW 247 0 min 0 UV-I 0 W/m 8,0 km/h (2 Bft)
27.06.2007 22:30 14,1 C 65 % 1006,3 hPa 0,0 mm 3,2 km/h (1 Bft) W-SW 247 0 min 0 UV-I 0 W/m 6,4 km/h (2 Bft)
27.06.2007 22:40 14,0 C 66 % 1006,4 hPa 0,0 mm 4,8 km/h (1 Bft) SW 225 0 min 0 UV-I 0 W/m 14,5 km/h (3 Bft)
27.06.2007 22:50 14,1 C 66 % 1006,4 hPa 0,0 mm 8,0 km/h (2 Bft) W-SW 247 0 min 0 UV-I 0 W/m 17,7 km/h (3 Bft)
27.06.2007 23:00 14,0 C 66 % 1006,4 hPa 0,0 mm 9,7 km/h (2 Bft) W 270 0 min 0 UV-I 0 W/m 22,5 km/h (4 Bft)
27.06.2007 23:10 13,9 C 68 % 1006,4 hPa 0,0 mm 3,2 km/h (1 Bft) W-SW 247 0 min 0 UV-I 0 W/m 11,3 km/h (2 Bft)
27.06.2007 23:20 13,7 C 69 % 1006,4 hPa 0,0 mm 3,2 km/h (1 Bft) SW 225 0 min 0 UV-I 0 W/m 11,3 km/h (2 Bft)
27.06.2007 23:40 13,4 C 70 % 1006,2 hPa 0,0 mm 2,4 km/h (1 Bft) S 175 0 min 0 UV-I 0 W/m 9,7 km/h (2 Bft)
27.06.2007 23:50 13,3 C 72 % 1006,4 hPa 0,0 mm 3,2 km/h (1 Bft) SW 225 0 min 0 UV-I 0 W/m 11,3 km/h (2 Bft)
_ Min-Zeit 08:10 17:50 00:00 - 13:50 - - - - - 14:00
Minimum _ 9,1 C 47 % 1002,9 hPa - 1,6 km/h (1 Bft) - - - - - 4,8 km/h (1 Bft)
_ Max-Zeit 17:00 13:50 22:40 07:40 02:10 - - 06:50 14:10 15:10 07:00
Maximum _ 17,3 C 86 % 1006,4 hPa 0,3 mm 14,5 km/h
W (3 Bft)
- - 10 min 7 UV-I 1009 W/m 40,2 km/h
N (6 Bft)
Durchschnitt _ 12,2 C 71 % 1004,8 hPa #1,0 mm 9,2 km/h (2 Bft) W-SW - #4:30 h 2 UV-I 268 W/m 22,8 km/h (4 Bft)